Carson City, Nevada
Current Conditions -  °F | °C
As of 6:55 AM on Monday 24 Nov 2014 (Local Time) from KCXP Reporting Station
Clear Clear  
Wind Chill: -6°   Ceiling: Unl
Heat Index: -6°   Visibility: 10mi
Dew Point: -8°   Wind: 0mph
Humidity: 86%   Direction: NA
Pressure: 30.46"   Gusts: NA
Location:  39.16°N, 119.77°W
Report Text: KCXP 241455Z AUTO 00000KT 10SM CLR M06/M08 A3046 RMK AO2
Loading
Personal Weather Stations






























Interactive Weather Map New forecast layout! Learn more

10-Day Weather Forecast

Advertisements
Track Severe Weather on mobile